This is the latest recevied weather packets stored in our database for station/object F5SGY-10. If no packets are shown the sender has not sent any weather packets the latest 10 day(s).
| Time | Temp. | Humidity | Pressure | Rain* | Wind** | Luminosity | Snow |
|---|---|---|---|---|---|---|---|
| 1788007513 | 81° F | 49% | 737.6 mmHg | - | - | - | - |
| 1787875780 | 95° F | 27% | 730.5 mmHg | - | - | - | - |
| 1787874880 | 100° F | 24% | 730.5 mmHg | - | - | - | - |
| 1787873980 | 100° F | 24% | 730.3 mmHg | - | - | - | - |
| 1787873080 | 100° F | 24% | 730.3 mmHg | - | - | - | - |
| 1787872180 | 100° F | 24% | 730.3 mmHg | - | - | - | - |
| 1787871280 | 100° F | 25% | 730.1 mmHg | - | - | - | - |
| 1787870379 | 101° F | 25% | 729.9 mmHg | - | - | - | - |
| 1787869479 | 101° F | 25% | 729.7 mmHg | - | - | - | - |
| 1787868579 | 101° F | 24% | 729.3 mmHg | - | - | - | - |
| 1787867679 | 101° F | 26% | 729.1 mmHg | - | - | - | - |
| 1787866779 | 100° F | 26% | 728.8 mmHg | - | - | - | - |
| 1787865879 | 100° F | 27% | 729.1 mmHg | - | - | - | - |
| 1787864979 | 101° F | 27% | 728.8 mmHg | - | - | - | - |
| 1787864079 | 101° F | 27% | 728.5 mmHg | - | - | - | - |
| 1787863179 | 101° F | 26% | 728.5 mmHg | - | - | - | - |
| 1787862279 | 101° F | 27% | 728.5 mmHg | - | - | - | - |
| 1787861378 | 101° F | 26% | 728.4 mmHg | - | - | - | - |
| 1787860478 | 101° F | 27% | 728.3 mmHg | - | - | - | - |
| 1787859578 | 101° F | 26% | 728 mmHg | - | - | - | - |
| 1787858678 | 102° F | 26% | 727.8 mmHg | - | - | - | - |
| 1787857778 | 101° F | 25% | 727.6 mmHg | - | - | - | - |
| 1787856878 | 102° F | 26% | 727.3 mmHg | - | - | - | - |
| 1787855978 | 102° F | 24% | 727.1 mmHg | - | - | - | - |
| 1787855078 | 102° F | 24% | 726.7 mmHg | - | - | - | - |
* Rain since midnight (hover to see other rain measurements)
** Current wind speed in m/s (hover to see current wind gust speed)